sensor_id;sensor_type;location;lat;lon;timestamp;temperature;humidity
35804;DHT22;21924;51.934;7.414;2023-05-10T00:01:52;13.90;99.90
35804;DHT22;21924;51.934;7.414;2023-05-10T00:04:36;13.90;99.90
35804;DHT22;21924;51.934;7.414;2023-05-10T00:07:20;13.90;99.90
35804;DHT22;21924;51.934;7.414;2023-05-10T00:10:05;13.90;99.90
35804;DHT22;21924;51.934;7.414;2023-05-10T00:12:49;13.80;99.90
35804;DHT22;21924;51.934;7.414;2023-05-10T00:15:33;13.80;99.90
35804;DHT22;21924;51.934;7.414;2023-05-10T00:18:18;13.80;99.90
35804;DHT22;21924;51.934;7.414;2023-05-10T00:21:02;13.70;99.90
35804;DHT22;21924;51.934;7.414;2023-05-10T00:23:47;13.70;99.90
35804;DHT22;21924;51.934;7.414;2023-05-10T00:26:31;13.70;99.90
35804;DHT22;21924;51.934;7.414;2023-05-10T00:29:15;13.70;99.90
35804;DHT22;21924;51.934;7.414;2023-05-10T00:31:59;13.70;99.90
35804;DHT22;21924;51.934;7.414;2023-05-10T00:34:44;13.70;99.90
35804;DHT22;21924;51.934;7.414;2023-05-10T00:37:28;13.70;99.90
35804;DHT22;21924;51.934;7.414;2023-05-10T00:40:13;13.70;99.90
35804;DHT22;21924;51.934;7.414;2023-05-10T00:42:57;13.70;99.90
35804;DHT22;21924;51.934;7.414;2023-05-10T00:45:42;13.70;99.90
35804;DHT22;21924;51.934;7.414;2023-05-10T00:48:26;13.70;99.90
35804;DHT22;21924;51.934;7.414;2023-05-10T00:51:13;13.70;99.90
35804;DHT22;21924;51.934;7.414;2023-05-10T00:53:57;13.60;99.90
35804;DHT22;21924;51.934;7.414;2023-05-10T00:56:42;13.60;99.90
35804;DHT22;21924;51.934;7.414;2023-05-10T00:59:32;13.50;99.90
35804;DHT22;21924;51.934;7.414;2023-05-10T01:02:16;13.50;99.90
35804;DHT22;21924;51.934;7.414;2023-05-10T01:05:02;13.40;99.90
35804;DHT22;21924;51.934;7.414;2023-05-10T01:07:47;13.40;99.90
35804;DHT22;21924;51.934;7.414;2023-05-10T01:10:32;13.40;99.90
35804;DHT22;21924;51.934;7.414;2023-05-10T01:13:38;13.30;99.90
35804;DHT22;21924;51.934;7.414;2023-05-10T01:16:24;13.30;99.90
35804;DHT22;21924;51.934;7.414;2023-05-10T01:19:24;13.30;99.90
35804;DHT22;21924;51.934;7.414;2023-05-10T01:22:34;13.40;99.90
35804;DHT22;21924;51.934;7.414;2023-05-10T01:25:35;13.40;99.90
35804;DHT22;21924;51.934;7.414;2023-05-10T01:35:19;13.00;99.90
35804;DHT22;21924;51.934;7.414;2023-05-10T01:38:22;12.90;99.90
35804;DHT22;21924;51.934;7.414;2023-05-10T01:41:21;12.70;99.90
35804;DHT22;21924;51.934;7.414;2023-05-10T01:44:29;12.60;99.90
35804;DHT22;21924;51.934;7.414;2023-05-10T01:47:20;12.60;99.90
35804;DHT22;21924;51.934;7.414;2023-05-10T01:50:15;12.60;99.90
35804;DHT22;21924;51.934;7.414;2023-05-10T01:53:00;12.50;99.90
35804;DHT22;21924;51.934;7.414;2023-05-10T01:55:48;12.50;99.90
35804;DHT22;21924;51.934;7.414;2023-05-10T01:58:34;12.50;99.90
35804;DHT22;21924;51.934;7.414;2023-05-10T02:01:21;12.50;99.90
35804;DHT22;21924;51.934;7.414;2023-05-10T02:04:07;12.40;99.90
35804;DHT22;21924;51.934;7.414;2023-05-10T02:06:53;12.40;99.90
35804;DHT22;21924;51.934;7.414;2023-05-10T02:09:39;12.40;99.90
35804;DHT22;21924;51.934;7.414;2023-05-10T02:12:24;12.40;99.90
35804;DHT22;21924;51.934;7.414;2023-05-10T02:15:11;12.40;99.90
35804;DHT22;21924;51.934;7.414;2023-05-10T02:17:56;12.40;99.90
35804;DHT22;21924;51.934;7.414;2023-05-10T02:20:43;12.40;99.90
35804;DHT22;21924;51.934;7.414;2023-05-10T02:23:28;12.40;99.90
35804;DHT22;21924;51.934;7.414;2023-05-10T02:26:13;12.40;99.90
35804;DHT22;21924;51.934;7.414;2023-05-10T02:28:58;12.40;99.90
35804;DHT22;21924;51.934;7.414;2023-05-10T02:31:43;12.40;99.90
35804;DHT22;21924;51.934;7.414;2023-05-10T02:34:28;12.40;99.90
35804;DHT22;21924;51.934;7.414;2023-05-10T02:37:14;12.40;99.90
35804;DHT22;21924;51.934;7.414;2023-05-10T02:40:00;12.40;99.90
35804;DHT22;21924;51.934;7.414;2023-05-10T02:42:48;12.40;99.90
35804;DHT22;21924;51.934;7.414;2023-05-10T02:45:35;12.40;99.90
35804;DHT22;21924;51.934;7.414;2023-05-10T02:48:20;12.30;99.90
35804;DHT22;21924;51.934;7.414;2023-05-10T02:51:05;12.30;99.90
35804;DHT22;21924;51.934;7.414;2023-05-10T02:53:50;12.40;99.90
35804;DHT22;21924;51.934;7.414;2023-05-10T02:56:42;12.40;99.90
35804;DHT22;21924;51.934;7.414;2023-05-10T02:59:27;12.30;99.90
35804;DHT22;21924;51.934;7.414;2023-05-10T03:02:14;12.30;99.90
35804;DHT22;21924;51.934;7.414;2023-05-10T03:04:58;12.30;99.90
35804;DHT22;21924;51.934;7.414;2023-05-10T03:07:43;12.30;99.90
35804;DHT22;21924;51.934;7.414;2023-05-10T03:10:30;12.30;99.90
35804;DHT22;21924;51.934;7.414;2023-05-10T03:13:36;12.30;99.90
35804;DHT22;21924;51.934;7.414;2023-05-10T03:16:31;12.30;99.90
35804;DHT22;21924;51.934;7.414;2023-05-10T03:19:26;12.30;99.90
35804;DHT22;21924;51.934;7.414;2023-05-10T03:22:13;12.30;99.90
35804;DHT22;21924;51.934;7.414;2023-05-10T03:25:05;12.30;99.90
35804;DHT22;21924;51.934;7.414;2023-05-10T03:27:50;12.30;99.90
35804;DHT22;21924;51.934;7.414;2023-05-10T03:30:35;12.30;99.90
35804;DHT22;21924;51.934;7.414;2023-05-10T03:33:20;12.30;99.90
35804;DHT22;21924;51.934;7.414;2023-05-10T03:36:05;12.30;99.90
35804;DHT22;21924;51.934;7.414;2023-05-10T03:38:49;12.30;99.90
35804;DHT22;21924;51.934;7.414;2023-05-10T03:41:33;12.30;99.90
35804;DHT22;21924;51.934;7.414;2023-05-10T03:44:18;12.30;99.90
35804;DHT22;21924;51.934;7.414;2023-05-10T03:47:02;12.30;99.90
35804;DHT22;21924;51.934;7.414;2023-05-10T03:49:46;12.30;99.90
35804;DHT22;21924;51.934;7.414;2023-05-10T03:52:30;12.30;99.90
35804;DHT22;21924;51.934;7.414;2023-05-10T03:55:16;12.40;99.90
35804;DHT22;21924;51.934;7.414;2023-05-10T03:58:00;12.40;99.90
35804;DHT22;21924;51.934;7.414;2023-05-10T04:00:45;12.40;99.90
35804;DHT22;21924;51.934;7.414;2023-05-10T04:03:29;12.40;99.90
35804;DHT22;21924;51.934;7.414;2023-05-10T04:06:14;12.40;99.90
35804;DHT22;21924;51.934;7.414;2023-05-10T04:08:58;12.40;99.90
35804;DHT22;21924;51.934;7.414;2023-05-10T04:11:44;12.40;99.90
35804;DHT22;21924;51.934;7.414;2023-05-10T04:14:28;12.40;99.90
35804;DHT22;21924;51.934;7.414;2023-05-10T04:17:12;12.50;99.90
35804;DHT22;21924;51.934;7.414;2023-05-10T04:19:56;12.40;99.90
35804;DHT22;21924;51.934;7.414;2023-05-10T04:22:40;12.50;99.90
35804;DHT22;21924;51.934;7.414;2023-05-10T04:25:25;12.50;99.90
35804;DHT22;21924;51.934;7.414;2023-05-10T04:28:09;12.50;99.90
35804;DHT22;21924;51.934;7.414;2023-05-10T04:30:53;12.50;99.90
35804;DHT22;21924;51.934;7.414;2023-05-10T04:33:43;12.50;99.90
35804;DHT22;21924;51.934;7.414;2023-05-10T04:36:28;12.50;99.90
35804;DHT22;21924;51.934;7.414;2023-05-10T04:39:12;12.50;99.90
35804;DHT22;21924;51.934;7.414;2023-05-10T04:41:57;12.50;99.90
35804;DHT22;21924;51.934;7.414;2023-05-10T04:44:41;12.50;99.90
35804;DHT22;21924;51.934;7.414;2023-05-10T04:47:26;12.60;99.90
35804;DHT22;21924;51.934;7.414;2023-05-10T04:50:10;12.60;99.90
35804;DHT22;21924;51.934;7.414;2023-05-10T04:52:54;12.60;99.90
35804;DHT22;21924;51.934;7.414;2023-05-10T04:55:39;12.60;99.90
35804;DHT22;21924;51.934;7.414;2023-05-10T04:58:23;12.70;99.90
35804;DHT22;21924;51.934;7.414;2023-05-10T05:01:08;12.70;99.90
35804;DHT22;21924;51.934;7.414;2023-05-10T05:03:52;12.80;99.90
35804;DHT22;21924;51.934;7.414;2023-05-10T05:06:37;12.70;99.90
35804;DHT22;21924;51.934;7.414;2023-05-10T05:09:21;12.80;99.90
35804;DHT22;21924;51.934;7.414;2023-05-10T05:12:05;12.80;99.90
35804;DHT22;21924;51.934;7.414;2023-05-10T05:14:49;12.90;99.90
35804;DHT22;21924;51.934;7.414;2023-05-10T05:17:34;12.90;99.90
35804;DHT22;21924;51.934;7.414;2023-05-10T05:20:18;12.90;99.90
35804;DHT22;21924;51.934;7.414;2023-05-10T05:23:03;12.90;99.90
35804;DHT22;21924;51.934;7.414;2023-05-10T05:25:47;12.90;99.90
35804;DHT22;21924;51.934;7.414;2023-05-10T05:28:31;12.90;99.90
35804;DHT22;21924;51.934;7.414;2023-05-10T05:31:17;12.90;99.90
35804;DHT22;21924;51.934;7.414;2023-05-10T05:34:01;12.90;99.90
35804;DHT22;21924;51.934;7.414;2023-05-10T05:36:46;12.90;99.90
35804;DHT22;21924;51.934;7.414;2023-05-10T05:39:30;13.00;99.90
35804;DHT22;21924;51.934;7.414;2023-05-10T05:42:14;13.10;99.90
35804;DHT22;21924;51.934;7.414;2023-05-10T05:45:00;13.10;99.90
35804;DHT22;21924;51.934;7.414;2023-05-10T05:47:44;13.10;99.90
35804;DHT22;21924;51.934;7.414;2023-05-10T05:50:28;13.10;99.90
35804;DHT22;21924;51.934;7.414;2023-05-10T05:53:13;13.10;99.90
35804;DHT22;21924;51.934;7.414;2023-05-10T05:55:58;13.10;99.90
35804;DHT22;21924;51.934;7.414;2023-05-10T05:58:42;13.10;99.90
35804;DHT22;21924;51.934;7.414;2023-05-10T06:01:27;13.20;99.90
35804;DHT22;21924;51.934;7.414;2023-05-10T06:04:11;13.20;99.90
35804;DHT22;21924;51.934;7.414;2023-05-10T06:06:56;13.20;99.90
35804;DHT22;21924;51.934;7.414;2023-05-10T06:09:41;13.20;99.90
35804;DHT22;21924;51.934;7.414;2023-05-10T06:12:25;13.20;99.90
35804;DHT22;21924;51.934;7.414;2023-05-10T06:15:09;13.20;99.90
35804;DHT22;21924;51.934;7.414;2023-05-10T06:17:54;13.20;99.90
35804;DHT22;21924;51.934;7.414;2023-05-10T06:20:38;13.20;99.90
35804;DHT22;21924;51.934;7.414;2023-05-10T06:23:25;13.30;99.90
35804;DHT22;21924;51.934;7.414;2023-05-10T06:26:09;13.30;99.90
35804;DHT22;21924;51.934;7.414;2023-05-10T06:28:54;13.30;99.90
35804;DHT22;21924;51.934;7.414;2023-05-10T06:31:38;13.30;99.90
35804;DHT22;21924;51.934;7.414;2023-05-10T06:34:22;13.30;99.90
35804;DHT22;21924;51.934;7.414;2023-05-10T06:37:06;13.30;99.90
35804;DHT22;21924;51.934;7.414;2023-05-10T06:39:51;13.40;99.90
35804;DHT22;21924;51.934;7.414;2023-05-10T06:42:35;13.40;99.90
35804;DHT22;21924;51.934;7.414;2023-05-10T06:45:19;13.50;99.90
35804;DHT22;21924;51.934;7.414;2023-05-10T06:48:04;13.40;99.90
35804;DHT22;21924;51.934;7.414;2023-05-10T06:50:48;13.50;99.90
35804;DHT22;21924;51.934;7.414;2023-05-10T06:53:33;13.60;99.90
35804;DHT22;21924;51.934;7.414;2023-05-10T06:56:17;13.70;99.90
35804;DHT22;21924;51.934;7.414;2023-05-10T06:59:01;13.80;99.90
35804;DHT22;21924;51.934;7.414;2023-05-10T07:01:45;13.80;99.90
35804;DHT22;21924;51.934;7.414;2023-05-10T07:04:30;13.80;99.90
35804;DHT22;21924;51.934;7.414;2023-05-10T07:07:14;13.90;99.90
35804;DHT22;21924;51.934;7.414;2023-05-10T07:09:58;14.00;99.90
35804;DHT22;21924;51.934;7.414;2023-05-10T07:12:43;14.00;99.90
35804;DHT22;21924;51.934;7.414;2023-05-10T07:15:27;14.10;99.90
35804;DHT22;21924;51.934;7.414;2023-05-10T07:18:12;14.30;99.90
35804;DHT22;21924;51.934;7.414;2023-05-10T07:20:56;14.60;99.90
35804;DHT22;21924;51.934;7.414;2023-05-10T07:23:40;14.90;99.90
35804;DHT22;21924;51.934;7.414;2023-05-10T07:26:25;15.10;99.90
35804;DHT22;21924;51.934;7.414;2023-05-10T07:29:09;15.20;99.90
35804;DHT22;21924;51.934;7.414;2023-05-10T07:31:54;15.20;99.90
35804;DHT22;21924;51.934;7.414;2023-05-10T07:34:38;15.30;99.90
35804;DHT22;21924;51.934;7.414;2023-05-10T07:37:23;15.30;99.90
35804;DHT22;21924;51.934;7.414;2023-05-10T07:40:07;15.30;99.90
35804;DHT22;21924;51.934;7.414;2023-05-10T07:42:52;15.40;99.90
35804;DHT22;21924;51.934;7.414;2023-05-10T07:45:36;15.50;99.90
35804;DHT22;21924;51.934;7.414;2023-05-10T07:48:20;15.60;99.90
35804;DHT22;21924;51.934;7.414;2023-05-10T07:51:05;15.80;99.90
35804;DHT22;21924;51.934;7.414;2023-05-10T07:53:51;15.90;99.90
35804;DHT22;21924;51.934;7.414;2023-05-10T07:56:36;16.10;99.90
35804;DHT22;21924;51.934;7.414;2023-05-10T07:59:20;16.40;99.90
35804;DHT22;21924;51.934;7.414;2023-05-10T08:02:04;16.30;99.90
35804;DHT22;21924;51.934;7.414;2023-05-10T08:04:49;16.50;99.90
35804;DHT22;21924;51.934;7.414;2023-05-10T08:07:33;16.60;99.90
35804;DHT22;21924;51.934;7.414;2023-05-10T08:10:17;16.70;99.90
35804;DHT22;21924;51.934;7.414;2023-05-10T08:13:02;16.70;99.90
35804;DHT22;21924;51.934;7.414;2023-05-10T08:15:46;16.70;99.90
35804;DHT22;21924;51.934;7.414;2023-05-10T08:18:31;16.70;99.90
35804;DHT22;21924;51.934;7.414;2023-05-10T08:21:15;16.60;99.90
35804;DHT22;21924;51.934;7.414;2023-05-10T08:23:59;16.60;99.90
35804;DHT22;21924;51.934;7.414;2023-05-10T08:26:43;16.60;99.90
35804;DHT22;21924;51.934;7.414;2023-05-10T08:29:28;16.70;99.90
35804;DHT22;21924;51.934;7.414;2023-05-10T08:32:12;16.80;99.90
35804;DHT22;21924;51.934;7.414;2023-05-10T08:34:56;16.90;99.90
35804;DHT22;21924;51.934;7.414;2023-05-10T08:37:40;17.00;99.90
35804;DHT22;21924;51.934;7.414;2023-05-10T08:40:26;16.90;99.90
35804;DHT22;21924;51.934;7.414;2023-05-10T08:43:12;16.80;99.90
35804;DHT22;21924;51.934;7.414;2023-05-10T08:46:00;16.70;99.90
35804;DHT22;21924;51.934;7.414;2023-05-10T08:48:48;16.70;99.90
35804;DHT22;21924;51.934;7.414;2023-05-10T08:51:37;16.80;99.90
35804;DHT22;21924;51.934;7.414;2023-05-10T08:54:24;16.80;99.90
35804;DHT22;21924;51.934;7.414;2023-05-10T08:57:08;16.90;99.90
35804;DHT22;21924;51.934;7.414;2023-05-10T08:59:53;17.00;99.90
35804;DHT22;21924;51.934;7.414;2023-05-10T09:02:37;17.50;99.90
35804;DHT22;21924;51.934;7.414;2023-05-10T09:05:22;17.50;99.90
35804;DHT22;21924;51.934;7.414;2023-05-10T09:08:06;17.50;99.90
35804;DHT22;21924;51.934;7.414;2023-05-10T09:10:52;17.50;99.90
35804;DHT22;21924;51.934;7.414;2023-05-10T09:13:37;17.50;99.90
35804;DHT22;21924;51.934;7.414;2023-05-10T09:16:21;17.60;99.90
35804;DHT22;21924;51.934;7.414;2023-05-10T09:19:05;17.60;99.90
35804;DHT22;21924;51.934;7.414;2023-05-10T09:21:51;17.50;99.90
35804;DHT22;21924;51.934;7.414;2023-05-10T09:24:35;17.30;99.90
35804;DHT22;21924;51.934;7.414;2023-05-10T09:27:26;17.20;99.90
35804;DHT22;21924;51.934;7.414;2023-05-10T09:30:23;17.30;99.90
35804;DHT22;21924;51.934;7.414;2023-05-10T09:33:07;17.40;99.90
35804;DHT22;21924;51.934;7.414;2023-05-10T09:35:52;17.70;99.90
35804;DHT22;21924;51.934;7.414;2023-05-10T09:38:49;17.80;99.90
35804;DHT22;21924;51.934;7.414;2023-05-10T09:41:33;17.80;99.90
35804;DHT22;21924;51.934;7.414;2023-05-10T09:44:18;17.80;99.90
35804;DHT22;21924;51.934;7.414;2023-05-10T09:47:03;17.80;99.90
35804;DHT22;21924;51.934;7.414;2023-05-10T09:49:51;17.70;99.90
35804;DHT22;21924;51.934;7.414;2023-05-10T09:52:47;17.80;99.90
35804;DHT22;21924;51.934;7.414;2023-05-10T09:55:44;17.80;99.90
35804;DHT22;21924;51.934;7.414;2023-05-10T09:58:29;17.60;99.90
35804;DHT22;21924;51.934;7.414;2023-05-10T10:01:13;17.50;99.90
35804;DHT22;21924;51.934;7.414;2023-05-10T10:03:58;17.40;99.90
35804;DHT22;21924;51.934;7.414;2023-05-10T10:06:42;17.40;99.90
35804;DHT22;21924;51.934;7.414;2023-05-10T10:09:27;17.40;99.90
35804;DHT22;21924;51.934;7.414;2023-05-10T10:12:11;17.60;99.90
35804;DHT22;21924;51.934;7.414;2023-05-10T10:14:56;17.70;99.90
35804;DHT22;21924;51.934;7.414;2023-05-10T10:17:41;18.10;99.90
35804;DHT22;21924;51.934;7.414;2023-05-10T10:20:28;18.50;99.90
35804;DHT22;21924;51.934;7.414;2023-05-10T10:23:12;18.20;99.90
35804;DHT22;21924;51.934;7.414;2023-05-10T10:25:57;18.00;99.90
35804;DHT22;21924;51.934;7.414;2023-05-10T10:32:19;17.70;99.90
35804;DHT22;21924;51.934;7.414;2023-05-10T10:35:06;17.70;99.90
35804;DHT22;21924;51.934;7.414;2023-05-10T10:37:52;17.90;99.90
35804;DHT22;21924;51.934;7.414;2023-05-10T10:40:36;18.30;99.90
35804;DHT22;21924;51.934;7.414;2023-05-10T10:43:28;18.80;99.90
35804;DHT22;21924;51.934;7.414;2023-05-10T10:46:17;19.20;99.90
35804;DHT22;21924;51.934;7.414;2023-05-10T10:49:10;19.60;99.90
35804;DHT22;21924;51.934;7.414;2023-05-10T10:55:19;19.40;99.90
35804;DHT22;21924;51.934;7.414;2023-05-10T10:58:07;19.40;99.90
35804;DHT22;21924;51.934;7.414;2023-05-10T11:01:15;19.10;99.90
35804;DHT22;21924;51.934;7.414;2023-05-10T11:06:44;18.30;99.90
35804;DHT22;21924;51.934;7.414;2023-05-10T11:09:39;17.90;99.90
35804;DHT22;21924;51.934;7.414;2023-05-10T11:12:23;17.60;99.90
35804;DHT22;21924;51.934;7.414;2023-05-10T11:15:09;17.40;99.90
35804;DHT22;21924;51.934;7.414;2023-05-10T11:17:53;17.30;99.90
35804;DHT22;21924;51.934;7.414;2023-05-10T11:20:39;17.00;99.90
35804;DHT22;21924;51.934;7.414;2023-05-10T11:23:47;16.80;99.90
35804;DHT22;21924;51.934;7.414;2023-05-10T11:26:33;16.80;99.90
35804;DHT22;21924;51.934;7.414;2023-05-10T11:29:18;17.00;99.90
35804;DHT22;21924;51.934;7.414;2023-05-10T11:32:05;17.00;99.90
35804;DHT22;21924;51.934;7.414;2023-05-10T11:34:52;17.40;99.90
35804;DHT22;21924;51.934;7.414;2023-05-10T11:37:36;17.70;99.90
35804;DHT22;21924;51.934;7.414;2023-05-10T11:40:22;18.00;99.90
35804;DHT22;21924;51.934;7.414;2023-05-10T11:43:09;18.30;99.90
35804;DHT22;21924;51.934;7.414;2023-05-10T11:45:54;18.70;99.90
35804;DHT22;21924;51.934;7.414;2023-05-10T11:48:39;18.70;99.90
35804;DHT22;21924;51.934;7.414;2023-05-10T11:51:25;18.50;99.90
35804;DHT22;21924;51.934;7.414;2023-05-10T11:54:10;18.60;99.90
35804;DHT22;21924;51.934;7.414;2023-05-10T11:56:55;18.80;99.90
35804;DHT22;21924;51.934;7.414;2023-05-10T11:59:39;18.90;99.90
35804;DHT22;21924;51.934;7.414;2023-05-10T12:02:24;19.10;99.90
35804;DHT22;21924;51.934;7.414;2023-05-10T12:05:08;19.30;99.90
35804;DHT22;21924;51.934;7.414;2023-05-10T12:08:10;19.40;99.90
35804;DHT22;21924;51.934;7.414;2023-05-10T12:11:06;19.80;99.90
35804;DHT22;21924;51.934;7.414;2023-05-10T12:13:50;19.50;99.90
35804;DHT22;21924;51.934;7.414;2023-05-10T12:16:35;19.80;99.90
35804;DHT22;21924;51.934;7.414;2023-05-10T12:19:20;20.00;99.90
35804;DHT22;21924;51.934;7.414;2023-05-10T12:22:05;20.10;99.90
35804;DHT22;21924;51.934;7.414;2023-05-10T12:24:50;20.20;99.90
35804;DHT22;21924;51.934;7.414;2023-05-10T12:27:34;20.20;99.90
35804;DHT22;21924;51.934;7.414;2023-05-10T12:30:27;20.60;99.90
35804;DHT22;21924;51.934;7.414;2023-05-10T12:33:13;20.30;99.90
35804;DHT22;21924;51.934;7.414;2023-05-10T12:35:59;20.50;99.90
35804;DHT22;21924;51.934;7.414;2023-05-10T12:38:45;20.70;99.90
35804;DHT22;21924;51.934;7.414;2023-05-10T12:41:32;21.00;99.90
35804;DHT22;21924;51.934;7.414;2023-05-10T12:44:16;21.40;99.90
35804;DHT22;21924;51.934;7.414;2023-05-10T12:47:01;21.40;99.90
35804;DHT22;21924;51.934;7.414;2023-05-10T12:49:45;21.20;99.90
35804;DHT22;21924;51.934;7.414;2023-05-10T12:52:30;20.80;99.90
35804;DHT22;21924;51.934;7.414;2023-05-10T12:55:16;20.40;99.90
35804;DHT22;21924;51.934;7.414;2023-05-10T12:58:00;20.00;99.90
35804;DHT22;21924;51.934;7.414;2023-05-10T13:00:44;19.40;99.90
35804;DHT22;21924;51.934;7.414;2023-05-10T13:03:29;19.10;99.90
35804;DHT22;21924;51.934;7.414;2023-05-10T13:06:13;18.80;99.90
35804;DHT22;21924;51.934;7.414;2023-05-10T13:08:57;18.70;99.90
35804;DHT22;21924;51.934;7.414;2023-05-10T13:11:42;18.50;99.90
35804;DHT22;21924;51.934;7.414;2023-05-10T13:14:26;18.40;99.90
35804;DHT22;21924;51.934;7.414;2023-05-10T13:17:11;18.40;99.90
35804;DHT22;21924;51.934;7.414;2023-05-10T13:19:55;18.50;99.90
35804;DHT22;21924;51.934;7.414;2023-05-10T13:22:40;18.50;99.90
35804;DHT22;21924;51.934;7.414;2023-05-10T13:25:24;18.60;99.90
35804;DHT22;21924;51.934;7.414;2023-05-10T13:28:08;18.70;99.90
35804;DHT22;21924;51.934;7.414;2023-05-10T13:30:53;18.60;99.90
35804;DHT22;21924;51.934;7.414;2023-05-10T13:33:37;18.40;99.90
35804;DHT22;21924;51.934;7.414;2023-05-10T13:36:22;18.50;99.90
35804;DHT22;21924;51.934;7.414;2023-05-10T13:39:06;18.90;99.90
35804;DHT22;21924;51.934;7.414;2023-05-10T13:41:50;18.90;99.90
35804;DHT22;21924;51.934;7.414;2023-05-10T13:44:35;18.70;99.90
35804;DHT22;21924;51.934;7.414;2023-05-10T13:47:19;18.40;99.90
35804;DHT22;21924;51.934;7.414;2023-05-10T13:50:05;18.10;99.90
35804;DHT22;21924;51.934;7.414;2023-05-10T13:52:50;17.70;99.90
35804;DHT22;21924;51.934;7.414;2023-05-10T13:55:34;17.60;99.90
35804;DHT22;21924;51.934;7.414;2023-05-10T13:58:18;17.50;99.90
35804;DHT22;21924;51.934;7.414;2023-05-10T14:01:03;17.40;99.90
35804;DHT22;21924;51.934;7.414;2023-05-10T14:03:49;17.30;99.90
35804;DHT22;21924;51.934;7.414;2023-05-10T14:06:33;17.30;99.90
35804;DHT22;21924;51.934;7.414;2023-05-10T14:09:17;17.50;99.90
35804;DHT22;21924;51.934;7.414;2023-05-10T14:12:02;17.70;99.90
35804;DHT22;21924;51.934;7.414;2023-05-10T14:14:46;18.00;99.90
35804;DHT22;21924;51.934;7.414;2023-05-10T14:17:30;18.10;99.90
35804;DHT22;21924;51.934;7.414;2023-05-10T14:20:15;18.30;99.90
35804;DHT22;21924;51.934;7.414;2023-05-10T14:23:00;18.30;99.90
35804;DHT22;21924;51.934;7.414;2023-05-10T14:25:44;18.40;99.90
35804;DHT22;21924;51.934;7.414;2023-05-10T14:28:28;18.50;99.90
35804;DHT22;21924;51.934;7.414;2023-05-10T14:31:13;19.20;99.90
35804;DHT22;21924;51.934;7.414;2023-05-10T14:33:58;20.10;99.90
35804;DHT22;21924;51.934;7.414;2023-05-10T14:36:43;20.70;99.90
35804;DHT22;21924;51.934;7.414;2023-05-10T14:39:27;21.50;99.90
35804;DHT22;21924;51.934;7.414;2023-05-10T14:42:13;22.00;99.90
35804;DHT22;21924;51.934;7.414;2023-05-10T14:44:58;21.90;99.90
35804;DHT22;21924;51.934;7.414;2023-05-10T14:47:42;21.50;99.90
35804;DHT22;21924;51.934;7.414;2023-05-10T14:50:26;21.60;99.90
35804;DHT22;21924;51.934;7.414;2023-05-10T14:53:10;22.20;99.90
35804;DHT22;21924;51.934;7.414;2023-05-10T14:55:54;22.20;99.90
35804;DHT22;21924;51.934;7.414;2023-05-10T14:58:39;22.30;99.90
35804;DHT22;21924;51.934;7.414;2023-05-10T15:01:23;22.20;99.90
35804;DHT22;21924;51.934;7.414;2023-05-10T15:04:07;21.80;99.90
35804;DHT22;21924;51.934;7.414;2023-05-10T15:06:51;21.30;99.90
35804;DHT22;21924;51.934;7.414;2023-05-10T15:09:36;21.10;99.90
35804;DHT22;21924;51.934;7.414;2023-05-10T15:12:20;21.00;99.90
35804;DHT22;21924;51.934;7.414;2023-05-10T15:15:06;21.00;99.90
35804;DHT22;21924;51.934;7.414;2023-05-10T15:17:50;20.60;99.90
35804;DHT22;21924;51.934;7.414;2023-05-10T15:20:35;20.30;99.90
35804;DHT22;21924;51.934;7.414;2023-05-10T15:23:19;20.20;99.90
35804;DHT22;21924;51.934;7.414;2023-05-10T15:26:03;20.00;99.90
35804;DHT22;21924;51.934;7.414;2023-05-10T15:28:47;19.80;99.90
35804;DHT22;21924;51.934;7.414;2023-05-10T15:31:32;19.70;99.90
35804;DHT22;21924;51.934;7.414;2023-05-10T15:34:18;19.40;99.90
35804;DHT22;21924;51.934;7.414;2023-05-10T15:37:03;19.60;99.90
35804;DHT22;21924;51.934;7.414;2023-05-10T15:39:47;19.50;99.90
35804;DHT22;21924;51.934;7.414;2023-05-10T15:42:31;19.30;99.90
35804;DHT22;21924;51.934;7.414;2023-05-10T15:45:16;19.10;99.90
35804;DHT22;21924;51.934;7.414;2023-05-10T15:48:00;18.90;99.90
35804;DHT22;21924;51.934;7.414;2023-05-10T15:50:44;18.70;99.90
35804;DHT22;21924;51.934;7.414;2023-05-10T15:53:29;18.70;99.90
35804;DHT22;21924;51.934;7.414;2023-05-10T15:56:13;18.90;99.90
35804;DHT22;21924;51.934;7.414;2023-05-10T15:58:57;18.80;99.90
35804;DHT22;21924;51.934;7.414;2023-05-10T16:01:41;18.60;99.90
35804;DHT22;21924;51.934;7.414;2023-05-10T16:04:26;18.40;99.90
35804;DHT22;21924;51.934;7.414;2023-05-10T16:07:10;18.40;99.90
35804;DHT22;21924;51.934;7.414;2023-05-10T16:09:54;18.40;99.90
35804;DHT22;21924;51.934;7.414;2023-05-10T16:12:38;18.50;99.90
35804;DHT22;21924;51.934;7.414;2023-05-10T16:15:23;18.60;99.90
35804;DHT22;21924;51.934;7.414;2023-05-10T16:18:07;18.60;99.90
35804;DHT22;21924;51.934;7.414;2023-05-10T16:20:52;18.60;99.90
35804;DHT22;21924;51.934;7.414;2023-05-10T16:23:36;18.60;99.90
35804;DHT22;21924;51.934;7.414;2023-05-10T16:26:21;18.60;99.90
35804;DHT22;21924;51.934;7.414;2023-05-10T16:29:06;18.50;99.90
35804;DHT22;21924;51.934;7.414;2023-05-10T16:31:51;18.40;99.90
35804;DHT22;21924;51.934;7.414;2023-05-10T16:34:35;18.30;99.90
35804;DHT22;21924;51.934;7.414;2023-05-10T16:37:19;18.10;99.90
35804;DHT22;21924;51.934;7.414;2023-05-10T16:40:04;18.30;99.90
35804;DHT22;21924;51.934;7.414;2023-05-10T16:42:48;18.40;99.90
35804;DHT22;21924;51.934;7.414;2023-05-10T16:45:33;18.50;99.90
35804;DHT22;21924;51.934;7.414;2023-05-10T16:48:17;18.60;99.90
35804;DHT22;21924;51.934;7.414;2023-05-10T16:51:02;18.50;99.90
35804;DHT22;21924;51.934;7.414;2023-05-10T16:53:47;18.40;99.90
35804;DHT22;21924;51.934;7.414;2023-05-10T16:56:31;18.20;99.90
35804;DHT22;21924;51.934;7.414;2023-05-10T16:59:16;18.00;99.90
35804;DHT22;21924;51.934;7.414;2023-05-10T17:02:00;18.00;99.90
35804;DHT22;21924;51.934;7.414;2023-05-10T17:04:44;17.90;99.90
35804;DHT22;21924;51.934;7.414;2023-05-10T17:07:29;17.80;99.90
35804;DHT22;21924;51.934;7.414;2023-05-10T17:10:13;17.70;99.90
35804;DHT22;21924;51.934;7.414;2023-05-10T17:12:57;17.70;99.90
35804;DHT22;21924;51.934;7.414;2023-05-10T17:15:42;17.70;99.90
35804;DHT22;21924;51.934;7.414;2023-05-10T17:18:28;17.70;99.90
35804;DHT22;21924;51.934;7.414;2023-05-10T17:21:13;17.70;99.90
35804;DHT22;21924;51.934;7.414;2023-05-10T17:23:57;17.70;99.90
35804;DHT22;21924;51.934;7.414;2023-05-10T17:26:41;17.50;99.90
35804;DHT22;21924;51.934;7.414;2023-05-10T17:29:26;17.40;99.90
35804;DHT22;21924;51.934;7.414;2023-05-10T17:32:11;17.20;99.90
35804;DHT22;21924;51.934;7.414;2023-05-10T17:34:55;17.10;99.90
35804;DHT22;21924;51.934;7.414;2023-05-10T17:37:40;17.10;99.90
35804;DHT22;21924;51.934;7.414;2023-05-10T17:40:24;17.00;99.90
35804;DHT22;21924;51.934;7.414;2023-05-10T17:43:09;16.90;99.90